Time;durP1;ratioP1;P1;durP2;ratioP2;P2;SDS_P1;SDS_P2;PMS_P1;PMS_P2;Temp;Humidity;BMP_temperature;BMP_pressure;BME280_temperature;BME280_humidity;BME280_pressure;Samples;Min_cycle;Max_cycle;Signal;HPM_P1;HPM_P2
2022/08/23 00:00:00;;;;;;;2.80;2.60;;;18.50;99.90;;;;;;6242958;23;20704;-72
2022/08/23 00:02:27;;;;;;;3.23;2.93;;;18.50;99.90;;;;;;6243108;23;20395;-72
2022/08/23 00:04:56;;;;;;;2.83;2.63;;;18.50;99.90;;;;;;6241825;23;21261;-71
2022/08/23 00:07:23;;;;;;;2.77;2.57;;;18.50;99.90;;;;;;6241994;23;20502;-72
2022/08/23 00:09:50;;;;;;;3.50;2.90;;;18.50;99.90;;;;;;6242725;23;20421;-72
2022/08/23 00:12:20;;;;;;;3.13;2.70;;;18.50;99.90;;;;;;6241853;23;20387;-72
2022/08/23 00:14:51;;;;;;;3.43;3.10;;;18.50;99.90;;;;;;6241766;23;20399;-72
2022/08/23 00:17:18;;;;;;;2.80;2.23;;;18.50;99.90;;;;;;6240797;23;20431;-72
2022/08/23 00:19:47;;;;;;;3.10;2.73;;;18.50;99.90;;;;;;6241714;23;20403;-71
2022/08/23 00:22:16;;;;;;;3.13;2.80;;;18.50;99.90;;;;;;6243161;23;20747;-71
2022/08/23 00:24:43;;;;;;;2.70;2.50;;;18.50;99.90;;;;;;6240997;23;20422;-72
2022/08/23 00:27:13;;;;;;;3.00;2.77;;;18.40;99.90;;;;;;6241630;23;20403;-71
2022/08/23 00:29:45;;;;;;;3.67;2.70;;;18.30;99.90;;;;;;6241638;23;20953;-72
2022/08/23 00:32:15;;;;;;;4.20;3.00;;;18.30;99.90;;;;;;6244095;23;20383;-72
2022/08/23 00:34:42;;;;;;;3.90;2.77;;;18.30;99.90;;;;;;6241083;23;20443;-71
2022/08/23 00:37:11;;;;;;;2.47;2.27;;;18.30;99.90;;;;;;6242583;23;20403;-72
2022/08/23 00:39:40;;;;;;;3.30;2.70;;;18.20;99.90;;;;;;6244664;23;20403;-71
2022/08/23 00:47:41;;;;;;;3.77;2.80;;;18.10;99.90;;;;;;6243653;23;20505;-72
2022/08/23 00:50:21;;;;;;;3.00;2.80;;;18.00;99.90;;;;;;6245051;23;20405;-72
2022/08/23 00:52:56;;;;;;;3.40;3.10;;;18.00;99.90;;;;;;6244304;23;20882;-71
2022/08/23 00:55:26;;;;;;;3.50;2.63;;;17.90;99.90;;;;;;6243655;23;20426;-71
2022/08/23 00:57:53;;;;;;;3.97;2.80;;;17.80;99.90;;;;;;6242722;23;20533;-72
2022/08/23 01:00:20;;;;;;;3.00;2.80;;;17.80;99.90;;;;;;6244092;23;20399;-72
2022/08/23 01:02:50;;;;;;;6.80;3.00;;;17.80;99.90;;;;;;6244881;23;20402;-72
2022/08/23 01:05:18;;;;;;;3.10;2.90;;;17.80;99.90;;;;;;6242826;23;20739;-72
2022/08/23 01:07:48;;;;;;;3.50;2.90;;;17.80;99.90;;;;;;6244255;23;20497;-72
2022/08/23 01:10:23;;;;;;;4.20;2.90;;;17.70;99.90;;;;;;6244535;23;20426;-71
2022/08/23 01:12:58;;;;;;;3.20;3.00;;;17.70;99.90;;;;;;6242579;23;20382;-71
2022/08/23 01:15:28;;;;;;;2.90;2.67;;;17.70;99.90;;;;;;6243385;23;20415;-71
2022/08/23 01:18:02;;;;;;;3.07;2.87;;;17.60;99.90;;;;;;6242883;23;20512;-71
2022/08/23 01:20:35;;;;;;;4.13;2.97;;;17.70;99.90;;;;;;6244384;23;20394;-71
2022/08/23 01:23:07;;;;;;;2.60;2.40;;;17.70;99.90;;;;;;6244914;23;20862;-72
2022/08/23 01:25:37;;;;;;;2.83;2.60;;;17.70;99.90;;;;;;6242390;23;20507;-71
2022/08/23 01:28:04;;;;;;;2.50;2.30;;;17.70;99.90;;;;;;6241711;23;20535;-71
2022/08/23 01:30:34;;;;;;;3.53;2.93;;;17.70;99.90;;;;;;6244338;23;20395;-71
2022/08/23 01:33:05;;;;;;;2.53;2.33;;;17.70;99.90;;;;;;6244332;23;20431;-71
2022/08/23 01:35:37;;;;;;;2.50;2.30;;;17.70;99.90;;;;;;6243006;23;20387;-71
2022/08/23 01:38:05;;;;;;;2.87;2.67;;;17.80;99.90;;;;;;6244485;23;20473;-72
2022/08/23 01:40:32;;;;;;;2.80;2.60;;;17.90;99.90;;;;;;6243215;23;20414;-72
2022/08/23 01:43:01;;;;;;;3.63;3.30;;;17.70;99.90;;;;;;6243984;23;20499;-72
2022/08/23 01:45:30;;;;;;;2.80;2.30;;;17.60;99.90;;;;;;6243144;23;20444;-72
2022/08/23 01:47:57;;;;;;;2.97;2.77;;;17.60;99.90;;;;;;6243103;23;20477;-71
2022/08/23 01:50:25;;;;;;;3.07;2.60;;;17.50;99.90;;;;;;6243976;23;20380;-72
2022/08/23 01:52:53;;;;;;;3.77;2.77;;;17.50;99.90;;;;;;6240793;23;20446;-71
2022/08/23 01:55:21;;;;;;;4.23;2.90;;;17.50;99.90;;;;;;6243075;23;20431;-71
2022/08/23 01:57:52;;;;;;;3.00;2.63;;;17.50;99.90;;;;;;6242324;23;20438;-72
2022/08/23 02:00:22;;;;;;;4.73;3.03;;;17.50;99.90;;;;;;6243440;23;20395;-71
2022/08/23 02:02:51;;;;;;;2.97;2.77;;;17.50;99.90;;;;;;6244228;23;20396;-72
2022/08/23 02:05:18;;;;;;;3.90;2.90;;;17.40;99.90;;;;;;6243214;23;20403;-72
2022/08/23 02:07:46;;;;;;;3.20;2.43;;;17.40;99.90;;;;;;6242044;23;20477;-72
2022/08/23 02:10:13;;;;;;;3.30;3.00;;;17.40;99.90;;;;;;6242651;23;20399;-72
2022/08/23 02:12:40;;;;;;;3.13;2.90;;;17.40;99.90;;;;;;6241755;23;20391;-72
2022/08/23 02:15:08;;;;;;;3.10;2.80;;;17.40;99.90;;;;;;6243257;23;20398;-72
2022/08/23 02:17:36;;;;;;;3.40;3.10;;;17.30;99.90;;;;;;6243715;23;20446;-71
2022/08/23 02:20:05;;;;;;;3.17;2.60;;;17.30;99.90;;;;;;6244599;23;20411;-72
2022/08/23 02:22:32;;;;;;;4.00;2.90;;;17.30;99.90;;;;;;6242035;23;20395;-71
2022/08/23 02:24:59;;;;;;;3.07;2.70;;;17.20;99.90;;;;;;6242833;23;20905;-71
2022/08/23 02:27:27;;;;;;;3.03;2.77;;;17.10;99.90;;;;;;6243693;23;20443;-71
2022/08/23 02:29:54;;;;;;;3.57;3.27;;;17.10;99.90;;;;;;6243599;23;20439;-72
2022/08/23 02:32:21;;;;;;;2.90;2.60;;;17.10;99.90;;;;;;6243136;23;20474;-71
2022/08/23 02:34:50;;;;;;;2.90;2.70;;;17.00;99.90;;;;;;6243247;23;20936;-71
2022/08/23 02:37:17;;;;;;;3.10;2.77;;;17.20;99.90;;;;;;6242757;23;20429;-72
2022/08/23 02:39:44;;;;;;;3.37;2.67;;;17.00;99.90;;;;;;6242520;23;21011;-71
2022/08/23 02:42:11;;;;;;;3.70;2.80;;;16.90;99.90;;;;;;6244098;23;20411;-71
2022/08/23 02:44:38;;;;;;;3.43;3.13;;;16.90;99.90;;;;;;6242886;23;20434;-72
2022/08/23 02:47:07;;;;;;;3.50;3.20;;;16.80;99.90;;;;;;6242647;23;20457;-71
2022/08/23 02:49:36;;;;;;;3.13;2.80;;;16.80;99.90;;;;;;6244421;23;20391;-71
2022/08/23 02:52:06;;;;;;;4.47;3.10;;;16.80;99.90;;;;;;6243171;23;20496;-72
2022/08/23 02:54:34;;;;;;;3.80;3.40;;;16.70;99.90;;;;;;6241766;23;20771;-72
2022/08/23 02:57:02;;;;;;;4.20;3.80;;;16.70;99.90;;;;;;6240280;23;20453;-72
2022/08/23 02:59:29;;;;;;;4.07;3.67;;;16.70;99.90;;;;;;6241426;23;20778;-72
2022/08/23 03:01:56;;;;;;;4.10;3.80;;;16.60;99.90;;;;;;6242434;23;20457;-72
2022/08/23 03:04:24;;;;;;;4.10;3.80;;;16.60;99.90;;;;;;6243598;23;20414;-71
2022/08/23 03:06:51;;;;;;;4.13;3.83;;;16.50;99.90;;;;;;6240547;23;20498;-72
2022/08/23 03:09:19;;;;;;;4.70;4.30;;;16.50;99.90;;;;;;6243883;23;20597;-71
2022/08/23 03:11:49;;;;;;;4.57;4.17;;;16.40;99.90;;;;;;6243716;23;20975;-72
2022/08/23 03:14:16;;;;;;;5.43;4.10;;;16.40;99.90;;;;;;6242500;23;20395;-71
2022/08/23 03:16:43;;;;;;;4.47;4.07;;;16.40;99.90;;;;;;6241755;23;20459;-72
2022/08/23 03:19:10;;;;;;;5.40;4.87;;;16.30;99.90;;;;;;6242898;23;20525;-71
2022/08/23 03:21:38;;;;;;;4.73;4.30;;;16.30;99.90;;;;;;6243443;23;20398;-71
2022/08/23 03:24:05;;;;;;;4.97;4.40;;;16.30;99.90;;;;;;6243683;23;20697;-72
2022/08/23 03:26:34;;;;;;;4.90;4.50;;;16.30;99.90;;;;;;6241128;23;20380;-72
2022/08/23 03:29:01;;;;;;;4.70;4.30;;;16.30;99.90;;;;;;6243630;23;20458;-72
2022/08/23 03:31:28;;;;;;;7.00;4.57;;;16.30;99.90;;;;;;6242799;23;20454;-72
2022/08/23 03:33:55;;;;;;;4.30;3.90;;;16.30;99.90;;;;;;6242950;23;20407;-72
2022/08/23 03:36:22;;;;;;;5.30;4.40;;;16.30;99.90;;;;;;6242088;23;20403;-71
2022/08/23 03:38:49;;;;;;;5.80;4.30;;;16.50;99.90;;;;;;6242801;23;20443;-71
2022/08/23 03:41:16;;;;;;;5.10;4.60;;;16.30;99.90;;;;;;6242725;23;20438;-72
2022/08/23 03:43:45;;;;;;;6.73;5.00;;;16.30;99.90;;;;;;6239846;23;20457;-72
2022/08/23 03:46:21;;;;;;;6.07;5.37;;;16.30;99.90;;;;;;6237223;23;20388;-71
2022/08/23 03:48:50;;;;;;;5.07;4.67;;;16.30;99.90;;;;;;6241642;23;20787;-72
2022/08/23 03:51:18;;;;;;;7.90;5.77;;;16.30;99.90;;;;;;6243313;23;20391;-72
2022/08/23 03:53:48;;;;;;;6.20;5.63;;;16.30;99.90;;;;;;6243596;23;20407;-71
2022/08/23 03:56:22;;;;;;;6.13;5.53;;;16.20;99.90;;;;;;6241722;23;20529;-72
2022/08/23 03:58:51;;;;;;;6.13;5.60;;;16.20;99.90;;;;;;6243142;23;20442;-71
2022/08/23 04:01:18;;;;;;;6.90;5.23;;;16.20;99.90;;;;;;6242362;23;20403;-72
2022/08/23 04:03:46;;;;;;;6.20;5.60;;;16.10;99.90;;;;;;6244031;23;20868;-71
2022/08/23 04:06:13;;;;;;;5.83;5.33;;;16.00;99.90;;;;;;6240996;23;20461;-71
2022/08/23 04:08:40;;;;;;;5.80;5.30;;;16.00;99.90;;;;;;6243498;23;20953;-72
2022/08/23 04:11:08;;;;;;;5.33;4.93;;;15.90;99.90;;;;;;6242202;23;20890;-71
2022/08/23 04:13:35;;;;;;;5.17;4.77;;;15.90;99.90;;;;;;6243054;23;20403;-71
2022/08/23 04:16:04;;;;;;;5.23;4.80;;;15.90;99.90;;;;;;6242457;23;20417;-71
2022/08/23 04:18:32;;;;;;;6.07;5.57;;;15.80;99.90;;;;;;6241819;23;20927;-72
2022/08/23 04:21:01;;;;;;;5.00;4.60;;;15.80;99.90;;;;;;6243259;23;20482;-71
2022/08/23 04:23:29;;;;;;;6.50;5.60;;;15.70;99.90;;;;;;6239468;23;20387;-71
2022/08/23 04:25:56;;;;;;;4.87;4.57;;;15.70;99.90;;;;;;6240396;23;20379;-72
2022/08/23 04:28:24;;;;;;;5.50;5.00;;;15.60;99.90;;;;;;6242717;23;20545;-71
2022/08/23 04:30:51;;;;;;;5.20;4.70;;;15.60;99.90;;;;;;6243592;23;20402;-71
2022/08/23 04:33:20;;;;;;;5.50;4.70;;;15.70;99.90;;;;;;6242909;23;20436;-71
2022/08/23 04:35:47;;;;;;;4.90;4.50;;;15.70;99.90;;;;;;6240797;23;20407;-71
2022/08/23 04:38:14;;;;;;;4.30;4.00;;;15.60;99.90;;;;;;6241704;23;20425;-71
2022/08/23 04:43:27;;;;;;;4.80;4.50;;;15.40;99.90;;;;;;6242923;23;20404;-71
2022/08/23 04:45:55;;;;;;;4.50;4.17;;;15.40;99.90;;;;;;6242729;23;20442;-71
2022/08/23 04:48:23;;;;;;;5.60;3.90;;;15.40;99.90;;;;;;6241364;23;20506;-71
2022/08/23 04:50:50;;;;;;;4.13;3.80;;;15.40;99.90;;;;;;6242634;23;20870;-71
2022/08/23 04:53:19;;;;;;;4.33;3.93;;;15.40;99.90;;;;;;6241888;23;20412;-72
2022/08/23 04:55:46;;;;;;;4.83;4.43;;;15.50;99.90;;;;;;6242434;23;20397;-72
2022/08/23 04:58:14;;;;;;;3.97;3.60;;;15.50;99.90;;;;;;6239365;23;20430;-72
2022/08/23 05:00:41;;;;;;;4.07;3.70;;;15.40;99.90;;;;;;6241724;23;20491;-72
2022/08/23 05:03:08;;;;;;;4.30;3.90;;;15.40;99.90;;;;;;6243451;23;20447;-72
2022/08/23 05:05:37;;;;;;;4.63;4.23;;;15.40;99.90;;;;;;6241070;23;20429;-71
2022/08/23 05:08:04;;;;;;;4.10;3.80;;;15.40;99.90;;;;;;6242931;23;20506;-71
2022/08/23 05:10:31;;;;;;;4.57;4.17;;;15.40;99.90;;;;;;6242867;23;20436;-71
2022/08/23 05:12:58;;;;;;;4.53;4.13;;;15.40;99.90;;;;;;6240570;23;20399;-71
2022/08/23 05:15:25;;;;;;;4.67;4.30;;;15.40;99.90;;;;;;6241606;23;20391;-71
2022/08/23 05:17:52;;;;;;;4.13;3.83;;;15.40;99.90;;;;;;6242584;23;20419;-71
2022/08/23 05:20:20;;;;;;;4.30;4.00;;;15.40;99.90;;;;;;6241704;23;20463;-71
2022/08/23 05:22:49;;;;;;;4.27;3.90;;;15.50;99.90;;;;;;6243001;23;20386;-71
2022/08/23 05:25:16;;;;;;;6.13;4.50;;;15.50;99.90;;;;;;6243864;23;20762;-71
2022/08/23 05:27:43;;;;;;;5.07;4.67;;;15.60;99.90;;;;;;6243545;23;20424;-71
2022/08/23 05:30:11;;;;;;;5.63;4.50;;;15.60;99.90;;;;;;6244143;23;20411;-71
2022/08/23 05:32:38;;;;;;;5.77;4.80;;;15.70;99.90;;;;;;6242268;23;20405;-71
2022/08/23 05:35:06;;;;;;;4.37;4.03;;;15.70;99.90;;;;;;6244958;23;20405;-71
2022/08/23 05:37:33;;;;;;;5.23;4.73;;;15.70;99.90;;;;;;6245286;23;20461;-71
2022/08/23 05:40:02;;;;;;;5.00;4.60;;;15.80;99.90;;;;;;6244338;23;20450;-71
2022/08/23 05:42:29;;;;;;;5.40;4.90;;;15.90;99.90;;;;;;6244572;23;20391;-71
2022/08/23 05:44:56;;;;;;;4.73;4.33;;;15.90;99.90;;;;;;6242711;23;20418;-71
2022/08/23 05:47:25;;;;;;;5.40;4.90;;;16.00;99.90;;;;;;6241943;23;20738;-71
2022/08/23 05:49:52;;;;;;;5.80;5.30;;;16.00;99.90;;;;;;6243826;23;20388;-71
2022/08/23 05:52:20;;;;;;;5.70;5.10;;;16.10;99.90;;;;;;6241844;23;20410;-71
2022/08/23 05:54:47;;;;;;;5.90;5.23;;;16.20;99.90;;;;;;6244430;23;20386;-71
2022/08/23 05:57:15;;;;;;;6.30;5.83;;;16.20;99.90;;;;;;6242715;23;20447;-72
2022/08/23 05:59:42;;;;;;;5.67;5.17;;;16.30;99.90;;;;;;6241769;23;20481;-71
2022/08/23 06:02:10;;;;;;;6.00;5.40;;;16.40;99.90;;;;;;6243667;23;20426;-71
2022/08/23 06:04:37;;;;;;;5.60;5.10;;;16.50;99.90;;;;;;6243105;23;20435;-70
2022/08/23 06:07:05;;;;;;;6.23;5.70;;;16.50;99.90;;;;;;6245151;23;20738;-70
2022/08/23 06:09:32;;;;;;;5.20;4.70;;;16.60;99.90;;;;;;6244084;23;20414;-70
2022/08/23 06:12:00;;;;;;;6.50;5.77;;;16.70;99.90;;;;;;6243090;23;20490;-70
2022/08/23 06:14:28;;;;;;;5.53;5.03;;;16.70;99.90;;;;;;6242311;23;20798;-70
2022/08/23 06:16:55;;;;;;;5.07;4.77;;;16.80;99.90;;;;;;6244032;23;20425;-70
2022/08/23 06:19:23;;;;;;;6.50;5.00;;;16.90;99.90;;;;;;6243242;23;20435;-70
2022/08/23 06:21:51;;;;;;;5.40;4.87;;;17.00;99.90;;;;;;6243673;23;21046;-69
2022/08/23 06:24:18;;;;;;;5.67;4.70;;;17.00;99.90;;;;;;6244136;23;20394;-69
2022/08/23 06:26:45;;;;;;;5.03;4.63;;;17.10;99.90;;;;;;6243151;23;20980;-70
2022/08/23 06:29:15;;;;;;;4.93;4.53;;;17.20;99.90;;;;;;6244446;23;20453;-72
2022/08/23 06:31:45;;;;;;;4.80;4.40;;;17.30;99.90;;;;;;6243206;23;20418;-71
2022/08/23 06:34:17;;;;;;;4.93;4.43;;;17.50;99.90;;;;;;6244506;23;20473;-71
2022/08/23 15:36:32;;;;;;;2.40;1.95;;;38.40;42.20;;;;;;6116022;23;20448;-76
2022/08/23 15:38:59;;;;;;;2.40;2.10;;;37.40;43.40;;;;;;6084493;23;20236;-79
2022/08/23 15:41:26;;;;;;;2.47;2.03;;;36.80;42.90;;;;;;6092504;23;20454;-75
2022/08/23 15:43:53;;;;;;;2.33;1.90;;;36.20;43.70;;;;;;6081494;23;20770;-75
2022/08/23 15:46:23;;;;;;;2.20;2.00;;;35.50;45.20;;;;;;6085517;23;20506;-75
2022/08/23 15:48:54;;;;;;;3.60;2.43;;;34.90;46.20;;;;;;6088372;23;20496;-75
2022/08/23 15:51:21;;;;;;;2.30;2.10;;;34.50;47.20;;;;;;6096627;23;21030;-76
2022/08/23 15:53:50;;;;;;;3.23;2.07;;;34.70;46.20;;;;;;6089280;23;20429;-75
2022/08/23 15:56:22;;;;;;;2.07;1.87;;;35.10;46.70;;;;;;6087336;23;20477;-75
2022/08/23 15:58:49;;;;;;;2.90;2.33;;;35.60;47.30;;;;;;6088234;23;20429;-75
2022/08/23 16:01:17;;;;;;;1.90;1.73;;;36.30;46.70;;;;;;6086449;23;20963;-75
2022/08/23 16:03:45;;;;;;;2.50;1.87;;;36.80;44.90;;;;;;6087467;23;20788;-75
2022/08/23 16:06:13;;;;;;;2.57;2.23;;;37.40;45.00;;;;;;6087032;23;20928;-75
2022/08/23 16:08:51;;;;;;;2.90;2.03;;;37.60;43.80;;;;;;6083009;23;20982;-76
2022/08/23 16:11:19;;;;;;;2.13;2.03;;;37.80;43.20;;;;;;6092674;23;20928;-74
2022/08/23 16:13:48;;;;;;;2.90;2.00;;;37.90;43.60;;;;;;6095107;23;20450;-75
2022/08/23 16:16:19;;;;;;;2.00;1.80;;;38.10;43.90;;;;;;6094591;23;20472;-74
2022/08/23 16:18:47;;;;;;;2.30;2.10;;;38.20;43.70;;;;;;6086282;23;20778;-74
2022/08/23 16:21:15;;;;;;;2.33;2.13;;;38.20;43.10;;;;;;6087414;23;20454;-75
2022/08/23 16:23:43;;;;;;;2.00;1.90;;;38.00;42.80;;;;;;6095571;23;20924;-75
2022/08/23 16:26:15;;;;;;;2.40;2.20;;;37.90;43.40;;;;;;6094944;23;20887;-75
2022/08/23 16:28:44;;;;;;;4.53;2.17;;;37.50;43.30;;;;;;6084518;23;20477;-75
2022/08/23 16:31:12;;;;;;;2.20;2.00;;;37.10;43.40;;;;;;6091825;23;20457;-75
2022/08/23 16:33:39;;;;;;;2.03;1.83;;;36.40;43.60;;;;;;6092033;23;20511;-75
2022/08/23 16:36:08;;;;;;;2.43;2.23;;;35.70;44.70;;;;;;6095776;23;20469;-75
2022/08/23 16:38:36;;;;;;;3.17;2.20;;;35.10;45.40;;;;;;6083764;23;20444;-75
2022/08/23 16:41:04;;;;;;;2.60;2.27;;;34.70;45.90;;;;;;6086174;23;20460;-75
2022/08/23 16:43:32;;;;;;;2.40;2.20;;;34.30;46.30;;;;;;6071802;23;20446;-75
2022/08/23 16:46:01;;;;;;;2.90;2.60;;;34.00;45.80;;;;;;6078980;23;20449;-75
2022/08/23 16:48:28;;;;;;;2.43;2.33;;;33.50;46.60;;;;;;6074978;23;20507;-75
2022/08/23 16:50:55;;;;;;;2.30;2.20;;;33.10;47.40;;;;;;6078461;23;20522;-75
2022/08/23 16:53:22;;;;;;;2.30;1.90;;;32.60;47.80;;;;;;6079250;23;20517;-74
2022/08/23 16:55:50;;;;;;;2.70;2.50;;;32.30;48.80;;;;;;6077666;23;20564;-75
2022/08/23 16:58:17;;;;;;;2.43;2.23;;;31.90;48.30;;;;;;6085351;23;20489;-82
2022/08/23 17:00:44;;;;;;;2.93;1.90;;;31.50;49.10;;;;;;6089313;23;20465;-74
2022/08/23 17:03:13;;;;;;;2.70;2.50;;;31.20;49.00;;;;;;6076813;23;20510;-77
2022/08/23 17:05:41;;;;;;;2.93;2.60;;;30.90;50.40;;;;;;6077509;23;20495;-77
2022/08/23 17:08:08;;;;;;;2.80;2.57;;;30.70;50.60;;;;;;6082114;23;20438;-77
2022/08/23 17:10:36;;;;;;;2.77;2.57;;;30.50;50.50;;;;;;6078816;23;20450;-78
2022/08/23 17:13:04;;;;;;;2.50;2.30;;;30.30;50.50;;;;;;6077699;23;20932;-78
2022/08/23 17:15:35;;;;;;;2.60;2.13;;;30.20;50.90;;;;;;6079134;23;20466;-79
2022/08/23 17:18:02;;;;;;;2.33;2.13;;;30.10;51.10;;;;;;6078490;23;20496;-79
2022/08/23 17:20:33;;;;;;;2.70;2.20;;;30.00;51.50;;;;;;6079035;23;20581;-79
2022/08/23 17:23:01;;;;;;;2.50;2.30;;;29.90;51.50;;;;;;6077710;23;20473;-78
2022/08/23 17:25:29;;;;;;;2.70;2.50;;;29.90;51.50;;;;;;6082232;23;20447;-80
2022/08/23 17:27:56;;;;;;;2.63;2.43;;;29.70;51.00;;;;;;6078698;23;20540;-78
2022/08/23 17:30:25;;;;;;;2.17;1.93;;;29.60;51.00;;;;;;6084022;23;20482;-78
2022/08/23 17:32:52;;;;;;;4.20;2.33;;;29.30;50.50;;;;;;6085297;23;20455;-77
2022/08/23 17:35:22;;;;;;;2.60;2.30;;;29.20;51.30;;;;;;6081956;23;20519;-80
2022/08/23 17:37:51;;;;;;;3.93;2.53;;;29.10;52.20;;;;;;6080158;23;20534;-79
2022/08/23 17:40:21;;;;;;;3.53;2.60;;;29.00;53.20;;;;;;6079472;23;20468;-80
2022/08/23 17:42:48;;;;;;;4.00;2.40;;;28.80;53.10;;;;;;6080244;23;20442;-79
2022/08/23 17:45:16;;;;;;;2.70;2.50;;;28.60;53.20;;;;;;6074098;23;20477;-79
2022/08/23 17:47:43;;;;;;;2.57;2.37;;;28.50;53.40;;;;;;6071966;23;21008;-79
2022/08/23 17:50:11;;;;;;;4.27;2.10;;;28.40;53.40;;;;;;6079289;23;20513;-79
2022/08/23 17:52:38;;;;;;;3.10;2.80;;;28.20;53.70;;;;;;6080517;23;20856;-78
2022/08/23 17:55:08;;;;;;;2.90;2.50;;;28.10;54.10;;;;;;6078308;23;20588;-79
2022/08/23 17:57:35;;;;;;;3.00;2.80;;;28.00;54.30;;;;;;6076268;23;20446;-79
2022/08/23 18:00:04;;;;;;;2.60;2.20;;;27.90;54.30;;;;;;6074380;23;20537;-79
2022/08/23 18:02:31;;;;;;;3.33;2.80;;;27.80;54.30;;;;;;6074000;23;20463;-78
2022/08/23 18:04:58;;;;;;;4.60;2.60;;;27.80;54.60;;;;;;6077850;23;20521;-78
2022/08/23 18:07:26;;;;;;;2.50;2.30;;;27.70;54.80;;;;;;6074530;23;20450;-78
2022/08/23 18:09:53;;;;;;;3.40;2.70;;;27.60;54.80;;;;;;6086463;23;22690;-79
2022/08/23 18:12:22;;;;;;;2.70;2.50;;;27.50;55.10;;;;;;6078422;23;20522;-79
2022/08/23 18:14:49;;;;;;;3.87;2.57;;;27.50;54.90;;;;;;6078595;23;20458;-79
2022/08/23 18:17:17;;;;;;;2.87;2.57;;;27.40;55.30;;;;;;6083011;23;20462;-78
2022/08/23 18:19:45;;;;;;;4.10;2.50;;;27.30;56.10;;;;;;6071663;23;20512;-78
2022/08/23 18:22:12;;;;;;;2.80;2.50;;;27.20;56.10;;;;;;6083887;23;20955;-79
2022/08/23 18:24:39;;;;;;;2.57;2.37;;;27.10;56.20;;;;;;6087140;23;22541;-79
2022/08/23 18:29:52;;;;;;;4.07;2.40;;;27.10;56.90;;;;;;6076611;23;20474;-80
2022/08/23 18:32:19;;;;;;;3.00;2.57;;;26.90;57.10;;;;;;6081849;23;20449;-79
2022/08/23 18:34:47;;;;;;;3.97;2.37;;;26.80;57.10;;;;;;6081847;23;20442;-79
2022/08/23 18:37:15;;;;;;;2.50;2.30;;;26.70;57.20;;;;;;6077464;23;20470;-79
2022/08/23 18:39:43;;;;;;;4.40;2.90;;;26.70;57.70;;;;;;6078534;23;20470;-79
2022/08/23 18:42:10;;;;;;;3.17;2.50;;;26.60;58.00;;;;;;6078130;23;20504;-79
2022/08/23 18:44:38;;;;;;;2.50;2.30;;;26.60;58.30;;;;;;6081028;23;20466;-80
2022/08/23 18:47:06;;;;;;;2.80;2.30;;;26.70;58.50;;;;;;6076279;23;20458;-79
2022/08/23 18:49:34;;;;;;;3.87;2.80;;;26.40;58.90;;;;;;6082376;23;20533;-80
2022/08/23 18:52:02;;;;;;;3.10;2.80;;;26.40;59.00;;;;;;6078764;23;21004;-79
2022/08/23 18:54:29;;;;;;;2.80;2.57;;;26.30;59.20;;;;;;6081803;23;20533;-78
2022/08/23 18:56:57;;;;;;;3.30;3.00;;;26.20;59.50;;;;;;6080032;23;20517;-79
2022/08/23 18:59:24;;;;;;;2.80;2.60;;;26.10;59.30;;;;;;6076807;23;20458;-79
2022/08/23 19:01:51;;;;;;;2.73;2.50;;;26.10;59.50;;;;;;6083988;23;20430;-79
2022/08/23 19:04:20;;;;;;;4.07;2.80;;;26.30;59.70;;;;;;6077859;23;20492;-79
2022/08/23 19:06:48;;;;;;;3.30;2.33;;;26.00;59.70;;;;;;6077701;23;20463;-80
2022/08/23 19:09:16;;;;;;;5.63;3.10;;;26.00;59.80;;;;;;6078779;23;20443;-80
2022/08/23 19:11:43;;;;;;;3.00;2.80;;;25.90;60.00;;;;;;6086098;23;20515;-79
2022/08/23 19:14:11;;;;;;;2.90;2.70;;;25.90;60.60;;;;;;6082990;23;20446;-79
2022/08/23 19:16:39;;;;;;;3.00;2.70;;;25.90;60.70;;;;;;6073861;23;20509;-80
2022/08/23 19:19:07;;;;;;;2.90;2.60;;;25.80;61.00;;;;;;6084117;23;20434;-80
2022/08/23 19:21:37;;;;;;;5.13;2.90;;;25.70;61.70;;;;;;6084593;23;20982;-79
2022/08/23 19:24:05;;;;;;;4.00;3.07;;;25.60;61.50;;;;;;6075761;23;20438;-80
2022/08/23 19:26:34;;;;;;;2.57;2.37;;;25.50;61.60;;;;;;6070288;23;20782;-79
2022/08/23 19:29:06;;;;;;;4.30;2.80;;;25.40;61.90;;;;;;6076979;23;20441;-78
2022/08/23 19:31:34;;;;;;;3.23;2.63;;;25.40;61.90;;;;;;6082265;23;22433;-79
2022/08/23 19:34:01;;;;;;;5.20;3.37;;;25.30;62.00;;;;;;6083495;23;20936;-80
2022/08/23 19:36:28;;;;;;;3.30;2.80;;;25.30;62.10;;;;;;6081144;23;21030;-80
2022/08/23 19:38:57;;;;;;;2.83;2.50;;;25.30;62.30;;;;;;6086310;23;20434;-79
2022/08/23 19:41:24;;;;;;;2.50;2.30;;;25.30;62.30;;;;;;6081147;23;20469;-80
2022/08/23 19:43:51;;;;;;;4.33;3.07;;;25.20;62.60;;;;;;6078097;23;20556;-80
2022/08/23 19:46:18;;;;;;;2.90;2.70;;;25.10;62.90;;;;;;6085145;23;20461;-80
2022/08/23 19:48:48;;;;;;;5.27;2.90;;;25.10;63.40;;;;;;6080277;23;20990;-80
2022/08/23 19:51:17;;;;;;;4.30;3.00;;;25.00;63.60;;;;;;6084312;23;20876;-80
2022/08/23 19:54:02;;;;;;;3.23;2.60;;;25.00;63.90;;;;;;6083059;23;20468;-79
2022/08/23 19:56:33;;;;;;;3.70;3.03;;;24.90;64.40;;;;;;6081298;23;20586;-79
2022/08/23 19:59:01;;;;;;;3.43;3.03;;;24.80;64.90;;;;;;6081459;23;20431;-80
2022/08/23 20:01:29;;;;;;;2.70;2.50;;;24.80;65.00;;;;;;6084408;23;20521;-79
2022/08/23 20:03:56;;;;;;;3.20;2.90;;;24.70;65.40;;;;;;6077964;23;20433;-78
2022/08/23 20:06:23;;;;;;;3.33;3.03;;;24.70;65.80;;;;;;6079329;23;20561;-77
2022/08/23 20:08:50;;;;;;;4.30;3.07;;;24.70;65.90;;;;;;6084994;23;20513;-77
2022/08/23 20:11:17;;;;;;;3.77;3.30;;;24.60;65.80;;;;;;6086399;23;20487;-77
2022/08/23 20:13:47;;;;;;;4.37;3.00;;;24.60;65.90;;;;;;6083762;23;20438;-78
2022/08/23 20:16:14;;;;;;;3.53;3.10;;;24.60;65.90;;;;;;6073936;23;20468;-78
2022/08/23 20:18:42;;;;;;;3.13;2.83;;;24.50;65.90;;;;;;6079748;23;20441;-78
2022/08/23 20:21:09;;;;;;;3.00;2.70;;;24.50;66.00;;;;;;6082866;23;20965;-78
2022/08/23 20:26:21;;;;;;;3.40;2.93;;;24.40;67.90;;;;;;6086508;23;20863;-77
2022/08/23 20:28:51;;;;;;;3.23;3.03;;;24.30;68.90;;;;;;6085293;23;20468;-78
2022/08/23 20:31:20;;;;;;;3.10;2.80;;;24.20;69.70;;;;;;6083503;23;20957;-77
2022/08/23 20:33:47;;;;;;;3.20;2.83;;;24.00;70.30;;;;;;6072517;23;20787;-78
2022/08/23 20:36:15;;;;;;;3.33;3.13;;;23.90;70.90;;;;;;6083442;23;20460;-78
2022/08/23 20:38:42;;;;;;;3.63;3.13;;;23.90;71.30;;;;;;6083866;23;20439;-78
2022/08/23 20:41:10;;;;;;;3.40;3.10;;;23.80;71.80;;;;;;6068719;23;21142;-77
2022/08/23 20:43:38;;;;;;;3.73;2.90;;;23.70;72.20;;;;;;6080536;23;20442;-78
2022/08/23 20:46:08;;;;;;;3.67;3.33;;;23.90;72.90;;;;;;6076460;23;20450;-77
2022/08/23 20:48:35;;;;;;;3.90;2.80;;;23.50;73.40;;;;;;6079674;23;20450;-77
2022/08/23 20:51:04;;;;;;;3.53;2.97;;;23.40;73.90;;;;;;6069716;23;20463;-78
2022/08/23 20:53:31;;;;;;;4.37;3.20;;;23.20;74.50;;;;;;6075415;23;20838;-78
2022/08/23 20:55:59;;;;;;;3.70;3.37;;;23.20;75.30;;;;;;6087211;23;20844;-77
2022/08/23 20:58:27;;;;;;;4.50;3.60;;;23.00;75.70;;;;;;6085361;23;20865;-78
2022/08/23 21:00:54;;;;;;;3.23;2.93;;;22.90;76.60;;;;;;6085413;23;20488;-78
2022/08/23 21:03:23;;;;;;;4.70;3.20;;;22.80;77.40;;;;;;6086610;23;20815;-78
2022/08/23 21:05:51;;;;;;;3.23;2.93;;;22.70;78.10;;;;;;6088413;23;20850;-79
2022/08/23 21:08:17;;;;;;;3.87;3.30;;;22.70;78.80;;;;;;6090057;23;20532;-78
2022/08/23 21:10:44;;;;;;;3.50;3.20;;;22.60;79.80;;;;;;6089012;23;20485;-78
2022/08/23 21:13:12;;;;;;;3.50;3.20;;;22.40;80.60;;;;;;6074839;23;20443;-78
2022/08/23 21:15:38;;;;;;;3.90;3.60;;;22.30;81.70;;;;;;6089939;23;20530;-78
2022/08/23 21:18:06;;;;;;;3.73;3.40;;;22.20;82.20;;;;;;6089821;23;20469;-78
2022/08/23 21:20:34;;;;;;;5.00;3.13;;;22.10;82.70;;;;;;6084203;23;20471;-78
2022/08/23 21:23:01;;;;;;;3.30;3.03;;;22.00;83.30;;;;;;6087827;23;20509;-80
2022/08/23 21:25:28;;;;;;;3.30;3.10;;;22.00;84.30;;;;;;6089162;23;20439;-78
2022/08/23 21:27:55;;;;;;;3.60;3.30;;;21.90;85.30;;;;;;6087548;23;20508;-79
2022/08/23 21:30:22;;;;;;;3.60;3.30;;;21.80;86.40;;;;;;6086950;23;20515;-79
2022/08/23 21:32:49;;;;;;;3.70;3.40;;;21.70;87.20;;;;;;6086892;23;20469;-79
2022/08/23 21:35:16;;;;;;;3.57;3.27;;;21.70;87.90;;;;;;6089058;23;20983;-77
2022/08/23 21:37:45;;;;;;;3.67;3.40;;;21.70;88.70;;;;;;6087287;23;20536;-77
2022/08/23 21:40:12;;;;;;;3.93;3.53;;;21.60;89.00;;;;;;6085001;23;20466;-77
2022/08/23 21:42:40;;;;;;;4.10;3.43;;;21.50;90.10;;;;;;6088738;23;20445;-80
2022/08/23 21:45:08;;;;;;;3.90;3.50;;;21.50;90.10;;;;;;6088134;23;20557;-79
2022/08/23 21:47:36;;;;;;;3.80;3.47;;;21.40;90.30;;;;;;6089669;23;20443;-78
2022/08/23 21:50:04;;;;;;;3.60;3.30;;;21.30;90.80;;;;;;6088246;23;20551;-78
2022/08/23 21:52:31;;;;;;;4.03;3.73;;;21.20;91.40;;;;;;6090489;23;20445;-78
2022/08/23 21:55:00;;;;;;;3.90;3.60;;;21.10;91.90;;;;;;6086411;23;20510;-78
2022/08/23 21:57:27;;;;;;;6.10;3.40;;;21.00;92.60;;;;;;6090676;23;20516;-79
2022/08/23 21:59:54;;;;;;;4.97;4.20;;;20.90;93.10;;;;;;6083161;23;20549;-78
2022/08/23 22:02:21;;;;;;;5.50;3.90;;;20.80;93.60;;;;;;6086013;23;20504;-79
2022/08/23 22:04:49;;;;;;;5.70;3.93;;;20.80;94.20;;;;;;6081671;23;20434;-79